Mount Gilead, Ohio
Current Conditions -  °F | °C
As of 6:53 PM on Saturday 22 Nov 2014 (Local Time) from KMNN Reporting Station
Overcast Overcast  
Wind Chill: 41°   Ceiling: 4300
Heat Index: 46°   Visibility: 10mi
Dew Point: 37°   Wind: 10mph
Humidity: 71%   Direction: 190°S
Pressure: 30.06"   Gusts: NA
Location:  40.55°N, 82.83°W
Report Text: KMNN 222353Z AUTO 19009KT 10SM OVC043 08/03 A3006 RMK AO2 SLP186 60000 T00780028 10083 20050 56005 TSNO
Loading
Personal Weather Stations






























Interactive Weather Map New forecast layout! Learn more

10-Day Weather Forecast

Advertisements
Track Severe Weather on mobile